sensor_id;sensor_type;location;lat;lon;timestamp;temperature;humidity
4749;DHT22;2388;53.582;9.962;2023-05-08T00:00:47;11.70;99.90
4749;DHT22;2388;53.582;9.962;2023-05-08T00:03:13;11.70;99.90
4749;DHT22;2388;53.582;9.962;2023-05-08T00:05:40;11.60;99.90
4749;DHT22;2388;53.582;9.962;2023-05-08T00:08:06;11.50;99.90
4749;DHT22;2388;53.582;9.962;2023-05-08T00:10:31;11.50;99.90
4749;DHT22;2388;53.582;9.962;2023-05-08T00:12:57;11.50;99.90
4749;DHT22;2388;53.582;9.962;2023-05-08T00:15:23;11.40;99.90
4749;DHT22;2388;53.582;9.962;2023-05-08T00:17:48;11.40;99.90
4749;DHT22;2388;53.582;9.962;2023-05-08T00:20:14;11.40;99.90
4749;DHT22;2388;53.582;9.962;2023-05-08T00:22:39;11.30;99.90
4749;DHT22;2388;53.582;9.962;2023-05-08T00:25:05;11.30;99.90
4749;DHT22;2388;53.582;9.962;2023-05-08T00:27:31;11.30;99.90
4749;DHT22;2388;53.582;9.962;2023-05-08T00:29:57;11.30;99.90
4749;DHT22;2388;53.582;9.962;2023-05-08T00:32:23;11.30;99.90
4749;DHT22;2388;53.582;9.962;2023-05-08T00:34:49;11.20;99.90
4749;DHT22;2388;53.582;9.962;2023-05-08T00:37:15;11.20;99.90
4749;DHT22;2388;53.582;9.962;2023-05-08T00:39:40;11.10;99.90
4749;DHT22;2388;53.582;9.962;2023-05-08T00:42:06;11.10;99.90
4749;DHT22;2388;53.582;9.962;2023-05-08T00:44:31;11.10;99.90
4749;DHT22;2388;53.582;9.962;2023-05-08T00:46:57;11.00;99.90
4749;DHT22;2388;53.582;9.962;2023-05-08T00:49:24;11.00;99.90
4749;DHT22;2388;53.582;9.962;2023-05-08T00:51:51;10.90;99.90
4749;DHT22;2388;53.582;9.962;2023-05-08T00:54:19;11.00;99.90
4749;DHT22;2388;53.582;9.962;2023-05-08T00:56:44;10.90;99.90
4749;DHT22;2388;53.582;9.962;2023-05-08T00:59:13;10.90;99.90
4749;DHT22;2388;53.582;9.962;2023-05-08T01:01:39;10.90;99.90
4749;DHT22;2388;53.582;9.962;2023-05-08T01:04:05;10.90;99.90
4749;DHT22;2388;53.582;9.962;2023-05-08T01:06:31;10.90;99.90
4749;DHT22;2388;53.582;9.962;2023-05-08T01:08:58;10.90;99.90
4749;DHT22;2388;53.582;9.962;2023-05-08T01:11:33;10.90;99.90
4749;DHT22;2388;53.582;9.962;2023-05-08T01:14:10;10.80;99.90
4749;DHT22;2388;53.582;9.962;2023-05-08T01:16:43;10.80;99.90
4749;DHT22;2388;53.582;9.962;2023-05-08T01:19:37;10.80;99.90
4749;DHT22;2388;53.582;9.962;2023-05-08T01:30:49;10.80;99.90
4749;DHT22;2388;53.582;9.962;2023-05-08T01:36:33;10.80;99.90
4749;DHT22;2388;53.582;9.962;2023-05-08T01:39:16;10.80;99.90
4749;DHT22;2388;53.582;9.962;2023-05-08T01:42:04;10.70;99.90
4749;DHT22;2388;53.582;9.962;2023-05-08T01:44:37;10.70;99.90
4749;DHT22;2388;53.582;9.962;2023-05-08T01:47:06;10.60;99.90
4749;DHT22;2388;53.582;9.962;2023-05-08T01:49:39;10.60;99.90
4749;DHT22;2388;53.582;9.962;2023-05-08T01:52:27;10.60;99.90
4749;DHT22;2388;53.582;9.962;2023-05-08T01:55:00;10.60;99.90
4749;DHT22;2388;53.582;9.962;2023-05-08T01:57:28;10.60;99.90
4749;DHT22;2388;53.582;9.962;2023-05-08T01:59:56;10.50;99.90
4749;DHT22;2388;53.582;9.962;2023-05-08T02:02:23;10.50;99.90
4749;DHT22;2388;53.582;9.962;2023-05-08T02:04:51;10.50;99.90
4749;DHT22;2388;53.582;9.962;2023-05-08T02:07:21;10.50;99.90
4749;DHT22;2388;53.582;9.962;2023-05-08T02:09:47;10.50;99.90
4749;DHT22;2388;53.582;9.962;2023-05-08T02:12:15;10.40;99.90
4749;DHT22;2388;53.582;9.962;2023-05-08T02:14:42;10.40;99.90
4749;DHT22;2388;53.582;9.962;2023-05-08T02:17:10;10.30;99.90
4749;DHT22;2388;53.582;9.962;2023-05-08T02:19:38;10.30;99.90
4749;DHT22;2388;53.582;9.962;2023-05-08T02:22:06;10.30;99.90
4749;DHT22;2388;53.582;9.962;2023-05-08T02:24:33;10.30;99.90
4749;DHT22;2388;53.582;9.962;2023-05-08T02:27:00;10.30;99.90
4749;DHT22;2388;53.582;9.962;2023-05-08T02:29:26;10.30;99.90
4749;DHT22;2388;53.582;9.962;2023-05-08T02:31:53;10.20;99.90
4749;DHT22;2388;53.582;9.962;2023-05-08T02:34:20;10.20;99.90
4749;DHT22;2388;53.582;9.962;2023-05-08T02:36:49;10.20;99.90
4749;DHT22;2388;53.582;9.962;2023-05-08T02:39:16;10.10;99.90
4749;DHT22;2388;53.582;9.962;2023-05-08T02:41:43;10.10;99.90
4749;DHT22;2388;53.582;9.962;2023-05-08T02:44:09;10.10;99.90
4749;DHT22;2388;53.582;9.962;2023-05-08T02:52:07;10.00;99.90
4749;DHT22;2388;53.582;9.962;2023-05-08T02:54:43;10.00;99.90
4749;DHT22;2388;53.582;9.962;2023-05-08T02:57:21;10.00;99.90
4749;DHT22;2388;53.582;9.962;2023-05-08T03:00:02;9.90;99.90
4749;DHT22;2388;53.582;9.962;2023-05-08T03:02:36;9.90;99.90
4749;DHT22;2388;53.582;9.962;2023-05-08T03:05:11;9.80;99.90
4749;DHT22;2388;53.582;9.962;2023-05-08T03:07:39;9.80;99.90
4749;DHT22;2388;53.582;9.962;2023-05-08T03:10:10;9.80;99.90
4749;DHT22;2388;53.582;9.962;2023-05-08T03:12:40;9.80;99.90
4749;DHT22;2388;53.582;9.962;2023-05-08T03:15:14;9.80;99.90
4749;DHT22;2388;53.582;9.962;2023-05-08T03:17:42;9.80;99.90
4749;DHT22;2388;53.582;9.962;2023-05-08T03:20:13;9.80;99.90
4749;DHT22;2388;53.582;9.962;2023-05-08T03:22:39;9.80;99.90
4749;DHT22;2388;53.582;9.962;2023-05-08T03:25:07;9.80;99.90
4749;DHT22;2388;53.582;9.962;2023-05-08T03:27:34;9.80;99.90
4749;DHT22;2388;53.582;9.962;2023-05-08T03:30:01;9.70;99.90
4749;DHT22;2388;53.582;9.962;2023-05-08T03:32:27;9.60;99.90
4749;DHT22;2388;53.582;9.962;2023-05-08T03:34:54;9.60;99.90
4749;DHT22;2388;53.582;9.962;2023-05-08T03:37:23;9.60;99.90
4749;DHT22;2388;53.582;9.962;2023-05-08T03:39:50;9.60;99.90
4749;DHT22;2388;53.582;9.962;2023-05-08T03:42:16;9.60;99.90
4749;DHT22;2388;53.582;9.962;2023-05-08T03:44:52;9.60;99.90
4749;DHT22;2388;53.582;9.962;2023-05-08T03:47:19;9.60;99.90
4749;DHT22;2388;53.582;9.962;2023-05-08T03:49:46;9.50;99.90
4749;DHT22;2388;53.582;9.962;2023-05-08T03:52:15;9.50;99.90
4749;DHT22;2388;53.582;9.962;2023-05-08T03:54:41;9.60;99.90
4749;DHT22;2388;53.582;9.962;2023-05-08T03:57:06;9.50;99.90
4749;DHT22;2388;53.582;9.962;2023-05-08T03:59:37;9.40;99.90
4749;DHT22;2388;53.582;9.962;2023-05-08T04:02:20;9.50;99.90
4749;DHT22;2388;53.582;9.962;2023-05-08T04:04:51;9.40;99.90
4749;DHT22;2388;53.582;9.962;2023-05-08T04:07:35;9.40;99.90
4749;DHT22;2388;53.582;9.962;2023-05-08T04:10:17;9.30;99.90
4749;DHT22;2388;53.582;9.962;2023-05-08T04:13:08;9.30;99.90
4749;DHT22;2388;53.582;9.962;2023-05-08T04:15:38;9.30;99.90
4749;DHT22;2388;53.582;9.962;2023-05-08T04:18:07;9.30;99.90
4749;DHT22;2388;53.582;9.962;2023-05-08T04:20:34;9.20;99.90
4749;DHT22;2388;53.582;9.962;2023-05-08T04:23:03;9.20;99.90
4749;DHT22;2388;53.582;9.962;2023-05-08T04:25:32;9.30;99.90
4749;DHT22;2388;53.582;9.962;2023-05-08T04:28:00;9.30;99.90
4749;DHT22;2388;53.582;9.962;2023-05-08T04:30:27;9.30;99.90
4749;DHT22;2388;53.582;9.962;2023-05-08T04:32:53;9.20;99.90
4749;DHT22;2388;53.582;9.962;2023-05-08T04:35:19;9.20;99.90
4749;DHT22;2388;53.582;9.962;2023-05-08T04:37:46;9.20;99.90
4749;DHT22;2388;53.582;9.962;2023-05-08T04:40:11;9.20;99.90
4749;DHT22;2388;53.582;9.962;2023-05-08T04:42:37;9.20;99.90
4749;DHT22;2388;53.582;9.962;2023-05-08T04:45:07;9.20;99.90
4749;DHT22;2388;53.582;9.962;2023-05-08T04:47:33;9.20;99.90
4749;DHT22;2388;53.582;9.962;2023-05-08T04:49:58;9.20;99.90
4749;DHT22;2388;53.582;9.962;2023-05-08T04:52:24;9.20;99.90
4749;DHT22;2388;53.582;9.962;2023-05-08T04:54:49;9.20;99.90
4749;DHT22;2388;53.582;9.962;2023-05-08T04:57:15;9.20;99.90
4749;DHT22;2388;53.582;9.962;2023-05-08T04:59:40;9.20;99.90
4749;DHT22;2388;53.582;9.962;2023-05-08T05:02:06;9.20;99.90
4749;DHT22;2388;53.582;9.962;2023-05-08T05:04:33;9.20;99.90
4749;DHT22;2388;53.582;9.962;2023-05-08T05:07:00;9.30;99.90
4749;DHT22;2388;53.582;9.962;2023-05-08T05:09:25;9.30;99.90
4749;DHT22;2388;53.582;9.962;2023-05-08T05:11:51;9.30;99.90
4749;DHT22;2388;53.582;9.962;2023-05-08T05:14:16;9.20;99.90
4749;DHT22;2388;53.582;9.962;2023-05-08T05:16:42;9.20;99.90
4749;DHT22;2388;53.582;9.962;2023-05-08T05:19:08;9.20;99.90
4749;DHT22;2388;53.582;9.962;2023-05-08T05:21:33;9.20;99.90
4749;DHT22;2388;53.582;9.962;2023-05-08T05:23:59;9.30;99.90
4749;DHT22;2388;53.582;9.962;2023-05-08T05:26:24;9.30;99.90
4749;DHT22;2388;53.582;9.962;2023-05-08T05:28:50;9.30;99.90
4749;DHT22;2388;53.582;9.962;2023-05-08T05:31:15;9.30;99.90
4749;DHT22;2388;53.582;9.962;2023-05-08T05:33:41;9.40;99.90
4749;DHT22;2388;53.582;9.962;2023-05-08T05:36:07;9.40;99.90
4749;DHT22;2388;53.582;9.962;2023-05-08T05:38:32;9.40;99.90
4749;DHT22;2388;53.582;9.962;2023-05-08T05:40:58;9.50;99.90
4749;DHT22;2388;53.582;9.962;2023-05-08T05:43:23;9.50;99.90
4749;DHT22;2388;53.582;9.962;2023-05-08T05:45:49;9.60;99.90
4749;DHT22;2388;53.582;9.962;2023-05-08T05:48:14;9.60;99.90
4749;DHT22;2388;53.582;9.962;2023-05-08T05:50:40;9.50;99.90
4749;DHT22;2388;53.582;9.962;2023-05-08T05:53:06;9.50;99.90
4749;DHT22;2388;53.582;9.962;2023-05-08T05:55:31;9.50;99.90
4749;DHT22;2388;53.582;9.962;2023-05-08T05:57:57;9.50;99.90
4749;DHT22;2388;53.582;9.962;2023-05-08T06:00:22;9.60;99.90
4749;DHT22;2388;53.582;9.962;2023-05-08T06:02:48;9.60;99.90
4749;DHT22;2388;53.582;9.962;2023-05-08T06:05:13;9.70;99.90
4749;DHT22;2388;53.582;9.962;2023-05-08T06:07:39;9.70;99.90
4749;DHT22;2388;53.582;9.962;2023-05-08T06:10:05;9.70;99.90
4749;DHT22;2388;53.582;9.962;2023-05-08T06:12:31;9.60;99.90
4749;DHT22;2388;53.582;9.962;2023-05-08T06:14:56;9.60;99.90
4749;DHT22;2388;53.582;9.962;2023-05-08T06:17:22;9.70;99.90
4749;DHT22;2388;53.582;9.962;2023-05-08T06:19:48;9.70;99.90
4749;DHT22;2388;53.582;9.962;2023-05-08T06:22:21;9.70;99.90
4749;DHT22;2388;53.582;9.962;2023-05-08T06:24:50;9.80;99.90
4749;DHT22;2388;53.582;9.962;2023-05-08T06:27:19;9.80;99.90
4749;DHT22;2388;53.582;9.962;2023-05-08T06:29:47;9.80;99.90
4749;DHT22;2388;53.582;9.962;2023-05-08T06:32:12;9.90;99.90
4749;DHT22;2388;53.582;9.962;2023-05-08T06:34:38;9.90;99.90
4749;DHT22;2388;53.582;9.962;2023-05-08T06:37:03;10.00;99.90
4749;DHT22;2388;53.582;9.962;2023-05-08T06:39:29;10.00;99.90
4749;DHT22;2388;53.582;9.962;2023-05-08T06:41:54;10.10;99.90
4749;DHT22;2388;53.582;9.962;2023-05-08T06:44:20;10.20;99.90
4749;DHT22;2388;53.582;9.962;2023-05-08T06:46:45;10.30;99.90
4749;DHT22;2388;53.582;9.962;2023-05-08T06:49:11;10.40;99.90
4749;DHT22;2388;53.582;9.962;2023-05-08T06:51:36;10.40;99.90
4749;DHT22;2388;53.582;9.962;2023-05-08T06:54:02;10.40;99.90
4749;DHT22;2388;53.582;9.962;2023-05-08T06:56:32;10.40;99.90
4749;DHT22;2388;53.582;9.962;2023-05-08T06:58:57;10.30;99.90
4749;DHT22;2388;53.582;9.962;2023-05-08T07:01:23;10.40;99.90
4749;DHT22;2388;53.582;9.962;2023-05-08T07:03:48;10.50;99.90
4749;DHT22;2388;53.582;9.962;2023-05-08T07:06:13;10.60;99.90
4749;DHT22;2388;53.582;9.962;2023-05-08T07:08:39;10.80;99.90
4749;DHT22;2388;53.582;9.962;2023-05-08T07:11:05;10.80;99.90
4749;DHT22;2388;53.582;9.962;2023-05-08T07:13:30;10.80;99.90
4749;DHT22;2388;53.582;9.962;2023-05-08T07:15:56;10.90;99.90
4749;DHT22;2388;53.582;9.962;2023-05-08T07:18:21;10.90;99.90
4749;DHT22;2388;53.582;9.962;2023-05-08T07:20:47;11.00;99.90
4749;DHT22;2388;53.582;9.962;2023-05-08T07:23:12;11.00;99.90
4749;DHT22;2388;53.582;9.962;2023-05-08T07:25:38;11.00;99.90
4749;DHT22;2388;53.582;9.962;2023-05-08T07:28:04;11.50;99.90
4749;DHT22;2388;53.582;9.962;2023-05-08T07:30:29;11.00;99.90
4749;DHT22;2388;53.582;9.962;2023-05-08T07:32:55;11.00;99.90
4749;DHT22;2388;53.582;9.962;2023-05-08T07:35:21;11.10;99.90
4749;DHT22;2388;53.582;9.962;2023-05-08T07:37:46;11.20;99.90
4749;DHT22;2388;53.582;9.962;2023-05-08T07:40:12;11.30;99.90
4749;DHT22;2388;53.582;9.962;2023-05-08T07:42:41;11.40;99.90
4749;DHT22;2388;53.582;9.962;2023-05-08T07:45:09;11.40;99.90
4749;DHT22;2388;53.582;9.962;2023-05-08T07:47:34;11.40;99.90
4749;DHT22;2388;53.582;9.962;2023-05-08T07:50:00;11.40;99.90
4749;DHT22;2388;53.582;9.962;2023-05-08T07:52:26;11.40;99.90
4749;DHT22;2388;53.582;9.962;2023-05-08T07:54:51;11.40;99.90
4749;DHT22;2388;53.582;9.962;2023-05-08T07:57:17;11.50;99.90
4749;DHT22;2388;53.582;9.962;2023-05-08T07:59:42;11.50;99.90
4749;DHT22;2388;53.582;9.962;2023-05-08T08:02:08;11.60;99.90
4749;DHT22;2388;53.582;9.962;2023-05-08T08:04:33;11.70;99.90
4749;DHT22;2388;53.582;9.962;2023-05-08T08:06:59;11.80;99.90
4749;DHT22;2388;53.582;9.962;2023-05-08T08:09:24;11.80;99.90
4749;DHT22;2388;53.582;9.962;2023-05-08T08:11:50;11.90;99.90
4749;DHT22;2388;53.582;9.962;2023-05-08T08:14:15;12.00;99.90
4749;DHT22;2388;53.582;9.962;2023-05-08T08:16:41;12.00;99.90
4749;DHT22;2388;53.582;9.962;2023-05-08T08:19:07;12.10;99.90
4749;DHT22;2388;53.582;9.962;2023-05-08T08:21:32;12.20;99.90
4749;DHT22;2388;53.582;9.962;2023-05-08T08:23:58;12.30;99.90
4749;DHT22;2388;53.582;9.962;2023-05-08T08:26:24;12.40;99.90
4749;DHT22;2388;53.582;9.962;2023-05-08T08:28:49;12.60;99.90
4749;DHT22;2388;53.582;9.962;2023-05-08T08:31:15;12.60;99.90
4749;DHT22;2388;53.582;9.962;2023-05-08T08:33:41;12.70;99.90
4749;DHT22;2388;53.582;9.962;2023-05-08T08:36:12;12.70;99.90
4749;DHT22;2388;53.582;9.962;2023-05-08T08:38:38;12.80;99.90
4749;DHT22;2388;53.582;9.962;2023-05-08T08:41:03;12.90;99.90
4749;DHT22;2388;53.582;9.962;2023-05-08T08:43:29;13.00;99.90
4749;DHT22;2388;53.582;9.962;2023-05-08T08:45:55;13.00;99.90
4749;DHT22;2388;53.582;9.962;2023-05-08T08:48:23;12.90;99.90
4749;DHT22;2388;53.582;9.962;2023-05-08T08:50:55;12.80;99.90
4749;DHT22;2388;53.582;9.962;2023-05-08T08:53:32;12.80;99.90
4749;DHT22;2388;53.582;9.962;2023-05-08T08:56:00;12.80;99.90
4749;DHT22;2388;53.582;9.962;2023-05-08T08:58:32;12.80;99.90
4749;DHT22;2388;53.582;9.962;2023-05-08T09:00:59;12.80;99.90
4749;DHT22;2388;53.582;9.962;2023-05-08T09:03:25;12.90;99.90
4749;DHT22;2388;53.582;9.962;2023-05-08T09:05:52;12.90;99.90
4749;DHT22;2388;53.582;9.962;2023-05-08T09:08:18;12.90;99.90
4749;DHT22;2388;53.582;9.962;2023-05-08T09:10:44;13.00;99.90
4749;DHT22;2388;53.582;9.962;2023-05-08T09:13:10;13.10;99.90
4749;DHT22;2388;53.582;9.962;2023-05-08T09:15:36;13.10;99.90
4749;DHT22;2388;53.582;9.962;2023-05-08T09:18:01;13.20;99.90
4749;DHT22;2388;53.582;9.962;2023-05-08T09:20:27;13.20;99.90
4749;DHT22;2388;53.582;9.962;2023-05-08T09:22:53;13.20;99.90
4749;DHT22;2388;53.582;9.962;2023-05-08T09:25:19;13.20;99.90
4749;DHT22;2388;53.582;9.962;2023-05-08T09:27:45;13.20;99.90
4749;DHT22;2388;53.582;9.962;2023-05-08T09:30:12;13.20;99.90
4749;DHT22;2388;53.582;9.962;2023-05-08T09:32:40;13.20;99.90
4749;DHT22;2388;53.582;9.962;2023-05-08T09:35:07;13.20;99.90
4749;DHT22;2388;53.582;9.962;2023-05-08T09:37:37;13.20;99.90
4749;DHT22;2388;53.582;9.962;2023-05-08T09:40:17;13.30;99.90
4749;DHT22;2388;53.582;9.962;2023-05-08T09:42:44;13.30;99.90
4749;DHT22;2388;53.582;9.962;2023-05-08T09:45:10;13.30;99.90
4749;DHT22;2388;53.582;9.962;2023-05-08T09:47:35;13.40;99.90
4749;DHT22;2388;53.582;9.962;2023-05-08T09:50:09;13.50;99.90
4749;DHT22;2388;53.582;9.962;2023-05-08T09:52:36;13.70;99.90
4749;DHT22;2388;53.582;9.962;2023-05-08T09:55:09;13.90;99.90
4749;DHT22;2388;53.582;9.962;2023-05-08T09:57:37;14.00;99.90
4749;DHT22;2388;53.582;9.962;2023-05-08T10:00:11;14.10;99.90
4749;DHT22;2388;53.582;9.962;2023-05-08T10:02:38;14.20;99.90
4749;DHT22;2388;53.582;9.962;2023-05-08T10:07:49;14.20;99.90
4749;DHT22;2388;53.582;9.962;2023-05-08T10:10:22;14.10;99.90
4749;DHT22;2388;53.582;9.962;2023-05-08T10:12:51;14.10;99.90
4749;DHT22;2388;53.582;9.962;2023-05-08T10:15:17;14.10;99.90
4749;DHT22;2388;53.582;9.962;2023-05-08T10:17:53;14.00;99.90
4749;DHT22;2388;53.582;9.962;2023-05-08T10:20:20;14.10;99.90
4749;DHT22;2388;53.582;9.962;2023-05-08T10:22:48;14.20;99.90
4749;DHT22;2388;53.582;9.962;2023-05-08T10:25:19;14.40;99.90
4749;DHT22;2388;53.582;9.962;2023-05-08T10:28:04;14.50;99.90
4749;DHT22;2388;53.582;9.962;2023-05-08T10:30:33;14.70;99.90
4749;DHT22;2388;53.582;9.962;2023-05-08T10:33:02;14.80;99.90
4749;DHT22;2388;53.582;9.962;2023-05-08T10:35:33;15.00;99.90
4749;DHT22;2388;53.582;9.962;2023-05-08T10:37:59;15.10;99.90
4749;DHT22;2388;53.582;9.962;2023-05-08T10:40:25;15.10;99.90
4749;DHT22;2388;53.582;9.962;2023-05-08T10:42:50;15.10;99.90
4749;DHT22;2388;53.582;9.962;2023-05-08T10:45:16;15.20;99.90
4749;DHT22;2388;53.582;9.962;2023-05-08T10:50:38;15.50;99.90
4749;DHT22;2388;53.582;9.962;2023-05-08T10:53:12;15.50;99.90
4749;DHT22;2388;53.582;9.962;2023-05-08T10:55:44;15.70;99.90
4749;DHT22;2388;53.582;9.962;2023-05-08T10:58:30;15.90;99.90
4749;DHT22;2388;53.582;9.962;2023-05-08T11:03:26;16.20;99.90
4749;DHT22;2388;53.582;9.962;2023-05-08T11:05:53;16.30;99.90
4749;DHT22;2388;53.582;9.962;2023-05-08T11:08:20;16.20;99.90
4749;DHT22;2388;53.582;9.962;2023-05-08T11:13:29;16.30;99.90
4749;DHT22;2388;53.582;9.962;2023-05-08T11:15:56;16.20;99.90
4749;DHT22;2388;53.582;9.962;2023-05-08T11:18:22;16.50;99.90
4749;DHT22;2388;53.582;9.962;2023-05-08T11:20:56;16.50;99.90
4749;DHT22;2388;53.582;9.962;2023-05-08T11:23:26;16.60;99.90
4749;DHT22;2388;53.582;9.962;2023-05-08T11:26:02;16.60;99.90
4749;DHT22;2388;53.582;9.962;2023-05-08T11:28:30;16.70;99.90
4749;DHT22;2388;53.582;9.962;2023-05-08T11:31:04;16.80;99.90
4749;DHT22;2388;53.582;9.962;2023-05-08T11:33:34;16.90;99.90
4749;DHT22;2388;53.582;9.962;2023-05-08T11:36:18;16.80;99.90
4749;DHT22;2388;53.582;9.962;2023-05-08T11:39:08;16.90;99.90
4749;DHT22;2388;53.582;9.962;2023-05-08T11:41:37;17.10;99.90
4749;DHT22;2388;53.582;9.962;2023-05-08T11:46:52;17.20;99.90
4749;DHT22;2388;53.582;9.962;2023-05-08T11:49:22;17.20;99.90
4749;DHT22;2388;53.582;9.962;2023-05-08T11:51:49;17.30;99.90
4749;DHT22;2388;53.582;9.962;2023-05-08T11:54:19;17.40;99.90
4749;DHT22;2388;53.582;9.962;2023-05-08T11:56:47;17.40;99.90
4749;DHT22;2388;53.582;9.962;2023-05-08T11:59:13;17.40;99.90
4749;DHT22;2388;53.582;9.962;2023-05-08T12:01:38;17.50;99.90
4749;DHT22;2388;53.582;9.962;2023-05-08T12:04:06;17.50;99.90
4749;DHT22;2388;53.582;9.962;2023-05-08T12:06:32;17.50;99.90
4749;DHT22;2388;53.582;9.962;2023-05-08T12:08:59;17.70;99.90
4749;DHT22;2388;53.582;9.962;2023-05-08T12:11:25;17.90;99.90
4749;DHT22;2388;53.582;9.962;2023-05-08T12:13:52;18.10;99.90
4749;DHT22;2388;53.582;9.962;2023-05-08T12:16:18;18.30;99.90
4749;DHT22;2388;53.582;9.962;2023-05-08T12:18:43;18.60;99.90
4749;DHT22;2388;53.582;9.962;2023-05-08T12:21:10;18.60;99.90
4749;DHT22;2388;53.582;9.962;2023-05-08T12:23:36;18.70;99.90
4749;DHT22;2388;53.582;9.962;2023-05-08T12:26:04;18.80;99.90
4749;DHT22;2388;53.582;9.962;2023-05-08T12:28:30;19.10;99.90
4749;DHT22;2388;53.582;9.962;2023-05-08T12:30:57;19.20;99.90
4749;DHT22;2388;53.582;9.962;2023-05-08T12:33:23;19.20;99.90
4749;DHT22;2388;53.582;9.962;2023-05-08T12:35:49;19.60;99.90
4749;DHT22;2388;53.582;9.962;2023-05-08T12:38:14;19.80;99.90
4749;DHT22;2388;53.582;9.962;2023-05-08T12:40:42;19.90;99.90
4749;DHT22;2388;53.582;9.962;2023-05-08T12:43:08;19.90;99.90
4749;DHT22;2388;53.582;9.962;2023-05-08T12:45:37;20.00;99.90
4749;DHT22;2388;53.582;9.962;2023-05-08T12:48:14;20.20;99.90
4749;DHT22;2388;53.582;9.962;2023-05-08T12:50:44;20.10;99.90
4749;DHT22;2388;53.582;9.962;2023-05-08T12:53:15;19.70;99.90
4749;DHT22;2388;53.582;9.962;2023-05-08T12:55:59;19.50;99.90
4749;DHT22;2388;53.582;9.962;2023-05-08T12:58:31;19.50;99.90
4749;DHT22;2388;53.582;9.962;2023-05-08T13:01:10;19.70;99.90
4749;DHT22;2388;53.582;9.962;2023-05-08T13:03:37;19.90;99.90
4749;DHT22;2388;53.582;9.962;2023-05-08T13:06:04;20.40;99.90
4749;DHT22;2388;53.582;9.962;2023-05-08T13:08:33;20.80;99.90
4749;DHT22;2388;53.582;9.962;2023-05-08T13:11:00;21.00;99.90
4749;DHT22;2388;53.582;9.962;2023-05-08T13:13:28;20.80;99.90
4749;DHT22;2388;53.582;9.962;2023-05-08T13:15:55;20.60;99.90
4749;DHT22;2388;53.582;9.962;2023-05-08T13:18:24;20.60;99.90
4749;DHT22;2388;53.582;9.962;2023-05-08T13:20:50;20.40;99.90
4749;DHT22;2388;53.582;9.962;2023-05-08T13:23:16;20.30;99.90
4749;DHT22;2388;53.582;9.962;2023-05-08T13:25:41;20.40;99.90
4749;DHT22;2388;53.582;9.962;2023-05-08T13:28:08;20.70;99.90
4749;DHT22;2388;53.582;9.962;2023-05-08T13:30:34;20.70;99.90
4749;DHT22;2388;53.582;9.962;2023-05-08T13:33:01;20.60;99.90
4749;DHT22;2388;53.582;9.962;2023-05-08T13:35:27;20.70;99.90
4749;DHT22;2388;53.582;9.962;2023-05-08T13:37:53;21.00;99.90
4749;DHT22;2388;53.582;9.962;2023-05-08T13:40:18;21.00;99.90
4749;DHT22;2388;53.582;9.962;2023-05-08T13:42:44;21.20;99.90
4749;DHT22;2388;53.582;9.962;2023-05-08T13:45:10;21.30;99.90
4749;DHT22;2388;53.582;9.962;2023-05-08T13:47:37;21.50;99.90
4749;DHT22;2388;53.582;9.962;2023-05-08T13:50:03;21.40;99.90
4749;DHT22;2388;53.582;9.962;2023-05-08T13:52:28;21.40;99.90
4749;DHT22;2388;53.582;9.962;2023-05-08T13:54:55;21.10;99.90
4749;DHT22;2388;53.582;9.962;2023-05-08T13:57:21;21.20;99.90
4749;DHT22;2388;53.582;9.962;2023-05-08T13:59:46;21.40;99.90
4749;DHT22;2388;53.582;9.962;2023-05-08T14:02:12;21.30;99.90
4749;DHT22;2388;53.582;9.962;2023-05-08T14:04:38;21.30;99.90
4749;DHT22;2388;53.582;9.962;2023-05-08T14:07:04;21.20;99.90
4749;DHT22;2388;53.582;9.962;2023-05-08T14:09:29;21.00;99.90
4749;DHT22;2388;53.582;9.962;2023-05-08T14:11:55;20.80;99.90
4749;DHT22;2388;53.582;9.962;2023-05-08T14:14:20;20.80;99.90
4749;DHT22;2388;53.582;9.962;2023-05-08T14:16:45;20.80;99.90
4749;DHT22;2388;53.582;9.962;2023-05-08T14:19:12;20.70;99.90
4749;DHT22;2388;53.582;9.962;2023-05-08T14:21:37;20.60;99.90
4749;DHT22;2388;53.582;9.962;2023-05-08T14:24:03;20.50;99.90
4749;DHT22;2388;53.582;9.962;2023-05-08T14:26:29;20.50;99.90
4749;DHT22;2388;53.582;9.962;2023-05-08T14:28:54;20.60;99.90
4749;DHT22;2388;53.582;9.962;2023-05-08T14:31:20;20.80;99.90
4749;DHT22;2388;53.582;9.962;2023-05-08T14:33:45;20.70;99.90
4749;DHT22;2388;53.582;9.962;2023-05-08T14:36:11;20.60;99.90
4749;DHT22;2388;53.582;9.962;2023-05-08T14:38:36;20.60;99.90
4749;DHT22;2388;53.582;9.962;2023-05-08T14:41:02;20.40;99.90
4749;DHT22;2388;53.582;9.962;2023-05-08T14:43:27;20.40;99.90
4749;DHT22;2388;53.582;9.962;2023-05-08T14:45:53;20.40;99.90
4749;DHT22;2388;53.582;9.962;2023-05-08T14:48:18;20.40;99.90
4749;DHT22;2388;53.582;9.962;2023-05-08T14:50:43;20.40;99.90
4749;DHT22;2388;53.582;9.962;2023-05-08T14:53:09;20.40;99.90
4749;DHT22;2388;53.582;9.962;2023-05-08T14:55:35;20.40;99.90
4749;DHT22;2388;53.582;9.962;2023-05-08T14:58:01;20.60;99.90
4749;DHT22;2388;53.582;9.962;2023-05-08T15:00:26;20.60;99.90
4749;DHT22;2388;53.582;9.962;2023-05-08T15:02:52;20.60;99.90
4749;DHT22;2388;53.582;9.962;2023-05-08T15:05:17;20.60;99.90
4749;DHT22;2388;53.582;9.962;2023-05-08T15:07:43;20.70;99.90
4749;DHT22;2388;53.582;9.962;2023-05-08T15:10:08;20.70;99.90
4749;DHT22;2388;53.582;9.962;2023-05-08T15:12:34;20.60;99.90
4749;DHT22;2388;53.582;9.962;2023-05-08T15:14:59;20.50;99.90
4749;DHT22;2388;53.582;9.962;2023-05-08T15:17:25;20.50;99.90
4749;DHT22;2388;53.582;9.962;2023-05-08T15:19:50;20.40;99.90
4749;DHT22;2388;53.582;9.962;2023-05-08T15:22:16;20.40;99.90
4749;DHT22;2388;53.582;9.962;2023-05-08T15:24:44;20.40;99.90
4749;DHT22;2388;53.582;9.962;2023-05-08T15:27:10;20.40;99.90
4749;DHT22;2388;53.582;9.962;2023-05-08T15:29:36;20.50;99.90
4749;DHT22;2388;53.582;9.962;2023-05-08T15:32:04;20.60;99.90
4749;DHT22;2388;53.582;9.962;2023-05-08T15:34:29;20.50;99.90
4749;DHT22;2388;53.582;9.962;2023-05-08T15:36:55;20.50;99.90
4749;DHT22;2388;53.582;9.962;2023-05-08T15:39:20;20.50;99.90
4749;DHT22;2388;53.582;9.962;2023-05-08T15:41:46;20.50;99.90
4749;DHT22;2388;53.582;9.962;2023-05-08T15:44:11;20.40;99.90
4749;DHT22;2388;53.582;9.962;2023-05-08T15:46:38;20.40;99.90
4749;DHT22;2388;53.582;9.962;2023-05-08T15:49:04;20.40;99.90
4749;DHT22;2388;53.582;9.962;2023-05-08T15:51:29;20.40;99.90
4749;DHT22;2388;53.582;9.962;2023-05-08T15:53:55;20.30;99.90
4749;DHT22;2388;53.582;9.962;2023-05-08T15:56:21;20.20;99.90
4749;DHT22;2388;53.582;9.962;2023-05-08T15:58:49;20.10;99.90
4749;DHT22;2388;53.582;9.962;2023-05-08T16:01:16;20.00;99.90
4749;DHT22;2388;53.582;9.962;2023-05-08T16:03:41;20.00;99.90
4749;DHT22;2388;53.582;9.962;2023-05-08T16:06:07;20.00;99.90
4749;DHT22;2388;53.582;9.962;2023-05-08T16:08:32;20.00;99.90
4749;DHT22;2388;53.582;9.962;2023-05-08T16:10:58;19.80;99.90
4749;DHT22;2388;53.582;9.962;2023-05-08T16:13:23;19.70;99.90
4749;DHT22;2388;53.582;9.962;2023-05-08T16:15:49;19.60;99.90
4749;DHT22;2388;53.582;9.962;2023-05-08T16:18:14;19.50;99.90
4749;DHT22;2388;53.582;9.962;2023-05-08T16:20:40;19.60;99.90
4749;DHT22;2388;53.582;9.962;2023-05-08T16:23:06;19.50;99.90
4749;DHT22;2388;53.582;9.962;2023-05-08T16:25:32;19.40;99.90
4749;DHT22;2388;53.582;9.962;2023-05-08T16:27:57;19.30;99.90
4749;DHT22;2388;53.582;9.962;2023-05-08T16:30:23;19.30;99.90
4749;DHT22;2388;53.582;9.962;2023-05-08T16:32:49;19.20;99.90
4749;DHT22;2388;53.582;9.962;2023-05-08T16:35:14;19.20;99.90
4749;DHT22;2388;53.582;9.962;2023-05-08T16:37:40;19.20;99.90